Time;durP1;ratioP1;P1;durP2;ratioP2;P2;SDS_P1;SDS_P2;PMS_P1;PMS_P2;Temp;Humidity;BMP_temperature;BMP_pressure;BME280_temperature;BME280_humidity;BME280_pressure;Samples;Min_cycle;Max_cycle;Signal;HPM_P1;HPM_P2
2022/04/28 00:00:50;;;;;;;;;;;;;;;-155.54;100.00;57697.75;5004021;28;20487;-60
2022/04/28 00:03:16;;;;;;;;;;;;;;;-155.54;100.00;57697.75;4982619;28;20044;-60
2022/04/28 00:05:41;;;;;;;;;;;;;;;-155.54;100.00;57697.75;4986119;28;19992;-60
2022/04/28 00:08:07;;;;;;;;;;;;;;;-155.54;100.00;57697.75;4995396;28;19989;-60
2022/04/28 00:10:32;;;;;;;;;;;;;;;-155.54;100.00;57697.75;5001618;28;20062;-61
2022/04/28 00:12:57;;;;;;;;;;;;;;;-155.54;100.00;57697.75;5001538;28;20028;-60
2022/04/28 00:15:22;;;;;;;;;;;;;;;-155.54;100.00;57697.75;5001473;28;20012;-61
2022/04/28 00:17:48;;;;;;;;;;;;;;;-155.54;100.00;57697.75;5029175;28;20060;-60
2022/04/28 00:20:13;;;;;;;;;;;;;;;-155.54;100.00;57697.75;5012465;28;19989;-61
2022/04/28 00:22:38;;;;;;;;;;;;;;;-155.54;100.00;57697.75;4986030;28;19972;-61
2022/04/28 00:25:04;;;;;;;;;;;;;;;-155.54;100.00;57697.75;4990760;28;20189;-61
2022/04/28 00:27:29;;;;;;;;;;;;;;;-155.54;100.00;57697.75;5005723;28;20416;-61
2022/04/28 00:29:55;;;;;;;;;;;;;;;-155.54;100.00;57697.75;5037484;28;19988;-61
2022/04/28 00:32:20;;;;;;;;;;;;;;;-155.54;100.00;57697.75;5029343;28;20007;-60
2022/04/28 00:34:46;;;;;;;;;;;;;;;-155.54;100.00;57697.75;5027631;28;20013;-61
2022/04/28 00:37:13;;;;;;;;;;;;;;;-155.54;100.00;57697.75;5039329;28;19992;-60
2022/04/28 00:39:38;;;;;;;;;;;;;;;-155.54;100.00;57697.75;5013249;28;20023;-61
2022/04/28 00:42:10;;;;;;;;;;;;;;;-155.54;100.00;57697.75;4986439;28;20005;-61
2022/04/28 00:44:35;;;;;;;;;;;;;;;-155.54;100.00;57697.75;4985686;28;20408;-61
2022/04/28 00:47:00;;;;;;;;;;;;;;;-155.54;100.00;57697.75;4999661;28;19970;-61
2022/04/28 00:52:09;;;;;;;;;;;;;;;-155.54;100.00;57697.75;5003338;28;19991;-61
2022/04/28 00:54:34;;;;;;;;;;;;;;;-155.54;100.00;57697.75;5003692;28;20388;-62
2022/04/28 00:57:00;;;;;;;;;;;;;;;-155.54;100.00;57697.75;5004511;28;19987;-61
2022/04/28 00:59:27;;;;;;;;;;;;;;;-155.54;100.00;57697.75;4991917;28;19993;-61
2022/04/28 01:01:53;;;;;;;;;;;;;;;-155.54;100.00;57697.75;5003103;28;19999;-62
2022/04/28 01:04:18;;;;;;;;;;;;;;;-155.54;100.00;57697.75;4995119;28;20364;-63
2022/04/28 01:06:44;;;;;;;;;;;;;;;-155.54;100.00;57697.75;5025001;28;19960;-62
2022/04/28 01:09:09;;;;;;;;;;;;;;;-155.54;100.00;57697.75;5021416;28;20470;-61
2022/04/28 01:11:34;;;;;;;;;;;;;;;-155.54;100.00;57697.75;5024245;28;19972;-62
2022/04/28 01:14:00;;;;;;;;;;;;;;;-155.54;100.00;57697.75;5010990;28;19986;-63
2022/04/28 01:16:25;;;;;;;;;;;;;;;-155.54;100.00;57697.75;5023789;28;20002;-62
2022/04/28 01:18:50;;;;;;;;;;;;;;;-155.54;100.00;57697.75;5023102;28;20045;-61
2022/04/28 01:21:15;;;;;;;;;;;;;;;-155.54;100.00;57697.75;5011315;28;20048;-63
2022/04/28 01:23:41;;;;;;;;;;;;;;;-155.54;100.00;57697.75;5002332;28;19966;-61
2022/04/28 01:26:06;;;;;;;;;;;;;;;-155.54;100.00;57697.75;5004305;28;19996;-63
2022/04/28 01:28:32;;;;;;;;;;;;;;;-155.54;100.00;57697.75;4998060;28;20042;-62
2022/04/28 01:31:01;;;;;;;;;;;;;;;-155.54;100.00;57697.75;5002722;28;20418;-61
2022/04/28 01:33:26;;;;;;;;;;;;;;;-155.54;100.00;57697.75;5006673;28;20689;-61
2022/04/28 01:35:51;;;;;;;;;;;;;;;-155.54;100.00;57697.75;5028754;28;19968;-62
2022/04/28 01:38:16;;;;;;;;;;;;;;;-155.54;100.00;57697.75;5030456;28;19963;-63
2022/04/28 01:40:43;;;;;;;;;;;;;;;-155.54;100.00;57697.75;5014089;28;20463;-62
2022/04/28 01:43:08;;;;;;;;;;;;;;;-155.54;100.00;57697.75;4984610;28;20044;-63
2022/04/28 01:45:33;;;;;;;;;;;;;;;-155.54;100.00;57697.75;4999770;28;19997;-63
2022/04/28 01:47:58;;;;;;;;;;;;;;;-155.54;100.00;57697.75;5017437;28;19969;-61
2022/04/28 01:50:24;;;;;;;;;;;;;;;-155.54;100.00;57697.75;5022693;28;19967;-62
2022/04/28 01:55:33;;;;;;;;;;;;;;;-155.54;100.00;57697.75;4997807;28;20034;-63
2022/04/28 01:57:59;;;;;;;;;;;;;;;-155.54;100.00;57697.75;4996850;28;20281;-62
2022/04/28 02:00:24;;;;;;;;;;;;;;;-155.54;100.00;57697.75;5003381;28;19996;-62
2022/04/28 02:02:49;;;;;;;;;;;;;;;-155.54;100.00;57697.75;5025793;28;19967;-62
2022/04/28 02:05:14;;;;;;;;;;;;;;;-155.54;100.00;57697.75;5034652;28;19989;-63
2022/04/28 02:07:40;;;;;;;;;;;;;;;-155.54;100.00;57697.75;5022649;28;20066;-63
2022/04/28 02:10:05;;;;;;;;;;;;;;;-155.54;100.00;57697.75;4989854;28;20000;-63
2022/04/28 02:12:30;;;;;;;;;;;;;;;-155.54;100.00;57697.75;5008210;28;20228;-63
2022/04/28 02:14:56;;;;;;;;;;;;;;;-155.54;100.00;57697.75;5018829;28;20016;-62
2022/04/28 02:17:22;;;;;;;;;;;;;;;-155.54;100.00;57697.75;5022573;28;20019;-57
2022/04/28 02:19:47;;;;;;;;;;;;;;;-155.54;100.00;57697.75;5016865;28;20388;-57
2022/04/28 02:22:12;;;;;;;;;;;;;;;-155.54;100.00;57697.75;5023205;28;19989;-57
2022/04/28 02:24:38;;;;;;;;;;;;;;;-155.54;100.00;57697.75;5010095;28;20032;-57
2022/04/28 02:27:03;;;;;;;;;;;;;;;-155.54;100.00;57697.75;5022730;28;19959;-56
2022/04/28 02:29:28;;;;;;;;;;;;;;;-155.54;100.00;57697.75;5013021;28;20108;-57
2022/04/28 02:31:53;;;;;;;;;;;;;;;-155.54;100.00;57697.75;5024631;28;20469;-56
2022/04/28 02:34:19;;;;;;;;;;;;;;;-155.54;100.00;57697.75;5024178;28;20000;-56
2022/04/28 02:36:44;;;;;;;;;;;;;;;-155.54;100.00;57697.75;5053552;28;21807;-56
2022/04/28 02:39:14;;;;;;;;;;;;;;;-155.54;100.00;57697.75;5019332;28;20331;-56
2022/04/28 02:41:40;;;;;;;;;;;;;;;-155.54;100.00;57697.75;4987245;28;20377;-57
2022/04/28 02:44:05;;;;;;;;;;;;;;;-155.54;100.00;57697.75;4981491;28;20028;-57
2022/04/28 02:46:31;;;;;;;;;;;;;;;-155.54;100.00;57697.75;4993012;28;20247;-57
2022/04/28 02:48:57;;;;;;;;;;;;;;;-155.54;100.00;57697.75;5001418;28;20452;-57
2022/04/28 02:51:22;;;;;;;;;;;;;;;-155.54;100.00;57697.75;5001000;28;19966;-57
2022/04/28 02:53:47;;;;;;;;;;;;;;;-155.54;100.00;57697.75;5002983;28;20307;-60
2022/04/28 02:56:13;;;;;;;;;;;;;;;-155.54;100.00;57697.75;5000770;28;20490;-61
2022/04/28 02:58:38;;;;;;;;;;;;;;;-155.54;100.00;57697.75;4991830;28;20658;-60
2022/04/28 03:01:03;;;;;;;;;;;;;;;-155.54;100.00;57697.75;5002086;28;20064;-60
2022/04/28 03:03:28;;;;;;;;;;;;;;;-155.54;100.00;57697.75;4989807;28;19988;-60
2022/04/28 03:11:21;;;;;;;;;;;;;;;-155.54;100.00;57697.75;5020418;28;20030;-60
2022/04/28 03:13:47;;;;;;;;;;;;;;;-155.54;100.00;57697.75;5010855;28;20302;-61
2022/04/28 03:16:12;;;;;;;;;;;;;;;-155.54;100.00;57697.75;5013581;28;19981;-61
2022/04/28 03:18:37;;;;;;;;;;;;;;;-155.54;100.00;57697.75;5000812;28;20190;-60
2022/04/28 03:21:05;;;;;;;;;;;;;;;-155.54;100.00;57697.75;5021188;28;20035;-60
2022/04/28 03:23:30;;;;;;;;;;;;;;;-155.54;100.00;57697.75;5015681;28;20055;-61
2022/04/28 03:25:55;;;;;;;;;;;;;;;-155.54;100.00;57697.75;5041961;28;20425;-61
2022/04/28 03:28:21;;;;;;;;;;;;;;;-155.54;100.00;57697.75;5004426;28;20045;-60
2022/04/28 03:30:47;;;;;;;;;;;;;;;-155.54;100.00;57697.75;4982876;28;20367;-61
2022/04/28 03:33:15;;;;;;;;;;;;;;;-155.54;100.00;57697.75;4994701;28;20299;-61
2022/04/28 03:35:41;;;;;;;;;;;;;;;-155.54;100.00;57697.75;5017289;28;20002;-60
2022/04/28 03:38:09;;;;;;;;;;;;;;;-155.54;100.00;57697.75;5010769;28;20373;-61
2022/04/28 03:40:35;;;;;;;;;;;;;;;-155.54;100.00;57697.75;5013537;28;19999;-57
2022/04/28 03:43:00;;;;;;;;;;;;;;;-155.54;100.00;57697.75;4991546;28;19981;-57
2022/04/28 03:45:26;;;;;;;;;;;;;;;-155.54;100.00;57697.75;5027931;28;19995;-57
2022/04/28 03:47:51;;;;;;;;;;;;;;;-155.54;100.00;57697.75;5018387;28;20057;-61
2022/04/28 03:50:17;;;;;;;;;;;;;;;-155.54;100.00;57697.75;5035575;28;20010;-61
2022/04/28 03:52:42;;;;;;;;;;;;;;;-155.54;100.00;57697.75;4997964;28;19994;-60
2022/04/28 03:55:08;;;;;;;;;;;;;;;-155.54;100.00;57697.75;4993319;28;20489;-62
2022/04/28 03:57:34;;;;;;;;;;;;;;;-155.54;100.00;57697.75;4991062;28;19993;-61
2022/04/28 03:59:59;;;;;;;;;;;;;;;-155.54;100.00;57697.75;5005918;28;19996;-61
2022/04/28 04:02:25;;;;;;;;;;;;;;;-155.54;100.00;57697.75;4992478;28;19986;-62
2022/04/28 04:04:50;;;;;;;;;;;;;;;-155.54;100.00;57697.75;5005672;28;19999;-62
2022/04/28 04:07:16;;;;;;;;;;;;;;;-155.54;100.00;57697.75;4993295;28;20043;-62
2022/04/28 04:09:42;;;;;;;;;;;;;;;-155.54;100.00;57697.75;5003530;28;20001;-61
2022/04/28 04:12:07;;;;;;;;;;;;;;;-155.54;100.00;57697.75;4998021;28;19974;-61
2022/04/28 04:14:32;;;;;;;;;;;;;;;-155.54;100.00;57697.75;5005871;28;20020;-61
2022/04/28 04:16:58;;;;;;;;;;;;;;;-155.54;100.00;57697.75;4995730;28;20036;-62
2022/04/28 04:19:23;;;;;;;;;;;;;;;-155.54;100.00;57697.75;5001638;28;19972;-61
2022/04/28 04:21:49;;;;;;;;;;;;;;;-155.54;100.00;57697.75;4997826;28;19986;-62
2022/04/28 04:24:14;;;;;;;;;;;;;;;-155.54;100.00;57697.75;4999902;28;19987;-62
2022/04/28 04:26:40;;;;;;;;;;;;;;;-155.54;100.00;57697.75;5003037;28;20087;-62
2022/04/28 04:29:05;;;;;;;;;;;;;;;-155.54;100.00;57697.75;4998165;28;20214;-60
2022/04/28 04:34:14;;;;;;;;;;;;;;;-155.54;100.00;57697.75;5005355;28;19997;-62
2022/04/28 04:36:39;;;;;;;;;;;;;;;-155.54;100.00;57697.75;4991402;28;20033;-62
2022/04/28 04:39:05;;;;;;;;;;;;;;;-155.54;100.00;57697.75;4999949;28;20043;-62
2022/04/28 04:41:30;;;;;;;;;;;;;;;-155.54;100.00;57697.75;5006371;28;19994;-61
2022/04/28 04:43:55;;;;;;;;;;;;;;;-155.54;100.00;57697.75;5043485;28;20423;-61
2022/04/28 04:46:20;;;;;;;;;;;;;;;-155.54;100.00;57697.75;5022761;28;19969;-62
2022/04/28 04:48:46;;;;;;;;;;;;;;;-155.54;100.00;57697.75;5011756;28;19996;-62
2022/04/28 04:51:11;;;;;;;;;;;;;;;-155.54;100.00;57697.75;4985892;28;19970;-61
2022/04/28 04:53:36;;;;;;;;;;;;;;;-155.54;100.00;57697.75;4987326;28;20762;-62
2022/04/28 04:56:02;;;;;;;;;;;;;;;-155.54;100.00;57697.75;4997579;28;19970;-61
2022/04/28 04:58:27;;;;;;;;;;;;;;;-155.54;100.00;57697.75;4998714;28;19972;-61
2022/04/28 05:00:52;;;;;;;;;;;;;;;-155.54;100.00;57697.75;5002645;28;20092;-63
2022/04/28 05:03:18;;;;;;;;;;;;;;;-155.54;100.00;57697.75;5004866;28;20089;-62
2022/04/28 05:05:44;;;;;;;;;;;;;;;-155.54;100.00;57697.75;5014380;28;20368;-62
2022/04/28 05:08:09;;;;;;;;;;;;;;;-155.54;100.00;57697.75;5009456;28;20338;-62
2022/04/28 05:10:35;;;;;;;;;;;;;;;-155.54;100.00;57697.75;5018912;28;19979;-62
2022/04/28 05:13:00;;;;;;;;;;;;;;;-155.54;100.00;57697.75;5006313;28;20356;-62
2022/04/28 05:15:25;;;;;;;;;;;;;;;-155.54;100.00;57697.75;5019037;28;19969;-62
2022/04/28 05:17:50;;;;;;;;;;;;;;;-155.54;100.00;57697.75;5009814;28;20022;-61
2022/04/28 05:20:16;;;;;;;;;;;;;;;-155.54;100.00;57697.75;5023658;28;20439;-63
2022/04/28 05:22:41;;;;;;;;;;;;;;;-155.54;100.00;57697.75;5022363;28;20070;-62
2022/04/28 05:25:06;;;;;;;;;;;;;;;-155.54;100.00;57697.75;5023705;28;19985;-63
2022/04/28 05:27:32;;;;;;;;;;;;;;;-155.54;100.00;57697.75;5010745;28;20496;-63
2022/04/28 05:29:57;;;;;;;;;;;;;;;-155.54;100.00;57697.75;5023397;28;20292;-61
2022/04/28 05:32:22;;;;;;;;;;;;;;;-155.54;100.00;57697.75;5010332;28;19993;-62
2022/04/28 05:34:47;;;;;;;;;;;;;;;-155.54;100.00;57697.75;5023988;28;19989;-62
2022/04/28 05:37:13;;;;;;;;;;;;;;;-155.54;100.00;57697.75;5014646;28;20023;-62
2022/04/28 05:39:39;;;;;;;;;;;;;;;-155.54;100.00;57697.75;5012386;28;19962;-62
2022/04/28 05:42:04;;;;;;;;;;;;;;;-155.54;100.00;57697.75;5018570;28;19990;-61
2022/04/28 05:47:14;;;;;;;;;;;;;;;-155.54;100.00;57697.75;5008799;28;19983;-62
2022/04/28 05:49:39;;;;;;;;;;;;;;;-155.54;100.00;57697.75;5000429;28;20072;-61
2022/04/28 05:52:04;;;;;;;;;;;;;;;-155.54;100.00;57697.75;4998199;28;20002;-62
2022/04/28 05:54:29;;;;;;;;;;;;;;;-155.54;100.00;57697.75;4997590;28;19959;-61
2022/04/28 05:56:55;;;;;;;;;;;;;;;-155.54;100.00;57697.75;4989977;28;19985;-63
2022/04/28 05:59:20;;;;;;;;;;;;;;;-155.54;100.00;57697.75;4989186;28;19997;-62
2022/04/28 06:01:45;;;;;;;;;;;;;;;-155.54;100.00;57697.75;4992049;28;20375;-63
2022/04/28 06:04:10;;;;;;;;;;;;;;;-155.54;100.00;57697.75;4995332;28;20010;-62
2022/04/28 06:06:36;;;;;;;;;;;;;;;-155.54;100.00;57697.75;4986881;28;20251;-62
2022/04/28 06:09:01;;;;;;;;;;;;;;;-155.54;100.00;57697.75;4996425;28;20028;-62
2022/04/28 06:11:27;;;;;;;;;;;;;;;-155.54;100.00;57697.75;4992810;28;19963;-63
2022/04/28 06:13:52;;;;;;;;;;;;;;;-155.54;100.00;57697.75;4990119;28;19981;-61
2022/04/28 06:16:17;;;;;;;;;;;;;;;-155.54;100.00;57697.75;4987258;28;19975;-60
2022/04/28 06:18:43;;;;;;;;;;;;;;;-155.54;100.00;57697.75;4995603;28;20051;-60
2022/04/28 06:21:08;;;;;;;;;;;;;;;-155.54;100.00;57697.75;4998593;28;20040;-61
2022/04/28 06:23:33;;;;;;;;;;;;;;;-155.54;100.00;57697.75;5002440;28;19981;-60
2022/04/28 06:26:00;;;;;;;;;;;;;;;-155.54;100.00;57697.75;4983074;28;19981;-60
2022/04/28 06:28:26;;;;;;;;;;;;;;;-155.54;100.00;57697.75;4981524;28;19973;-61
2022/04/28 06:30:51;;;;;;;;;;;;;;;-155.54;100.00;57697.75;4985987;28;20419;-61
2022/04/28 06:33:18;;;;;;;;;;;;;;;-155.54;100.00;57697.75;5006015;28;19983;-61
2022/04/28 06:35:43;;;;;;;;;;;;;;;-155.54;100.00;57697.75;5007462;28;20045;-60
2022/04/28 06:38:09;;;;;;;;;;;;;;;-155.54;100.00;57697.75;5003964;28;20343;-62
2022/04/28 06:40:34;;;;;;;;;;;;;;;-155.54;100.00;57697.75;5010166;28;20043;-61
2022/04/28 06:42:59;;;;;;;;;;;;;;;-155.54;100.00;57697.75;5007349;28;19956;-62
2022/04/28 06:45:24;;;;;;;;;;;;;;;-155.54;100.00;57697.75;5002387;28;19971;-61
2022/04/28 06:47:50;;;;;;;;;;;;;;;-155.54;100.00;57697.75;4992707;28;19957;-61
2022/04/28 06:50:15;;;;;;;;;;;;;;;-155.54;100.00;57697.75;4985781;28;19968;-61
2022/04/28 06:52:40;;;;;;;;;;;;;;;-155.54;100.00;57697.75;4985168;28;20344;-61
2022/04/28 06:55:06;;;;;;;;;;;;;;;-155.54;100.00;57697.75;4985122;28;20043;-62
2022/04/28 06:57:31;;;;;;;;;;;;;;;-155.54;100.00;57697.75;4991445;28;20382;-62
2022/04/28 06:59:57;;;;;;;;;;;;;;;-155.54;100.00;57697.75;4996903;28;20058;-60
2022/04/28 07:02:22;;;;;;;;;;;;;;;-155.54;100.00;57697.75;5007852;28;19985;-62
2022/04/28 07:04:47;;;;;;;;;;;;;;;-155.54;100.00;57697.75;5006958;28;20012;-60
2022/04/28 07:07:13;;;;;;;;;;;;;;;-155.54;100.00;57697.75;5003798;28;20038;-61
2022/04/28 07:09:38;;;;;;;;;;;;;;;-155.54;100.00;57697.75;4992044;28;20457;-62
2022/04/28 07:12:03;;;;;;;;;;;;;;;-155.54;100.00;57697.75;4989485;28;19940;-61
2022/04/28 07:14:29;;;;;;;;;;;;;;;-155.54;100.00;57697.75;5012611;28;20180;-60
2022/04/28 07:16:54;;;;;;;;;;;;;;;-155.54;100.00;57697.75;5008112;28;19979;-61
2022/04/28 07:19:19;;;;;;;;;;;;;;;-155.54;100.00;57697.75;5012696;28;20680;-61
2022/04/28 07:21:45;;;;;;;;;;;;;;;-155.54;100.00;57697.75;4994345;28;20417;-62
2022/04/28 07:24:10;;;;;;;;;;;;;;;-155.54;100.00;57697.75;4988908;28;19938;-61
2022/04/28 07:26:35;;;;;;;;;;;;;;;-155.54;100.00;57697.75;4996728;28;19948;-62
2022/04/28 07:29:00;;;;;;;;;;;;;;;-155.54;100.00;57697.75;5005063;28;19975;-61
2022/04/28 07:31:26;;;;;;;;;;;;;;;-155.54;100.00;57697.75;5017673;28;20521;-62
2022/04/28 07:33:52;;;;;;;;;;;;;;;-155.54;100.00;57697.75;4997933;28;19959;-62
2022/04/28 07:36:17;;;;;;;;;;;;;;;-155.54;100.00;57697.75;4994705;28;19947;-61
2022/04/28 07:38:42;;;;;;;;;;;;;;;-155.54;100.00;57697.75;4985790;28;20726;-62
2022/04/28 07:41:08;;;;;;;;;;;;;;;-155.54;100.00;57697.75;4987676;28;20611;-61
2022/04/28 07:43:33;;;;;;;;;;;;;;;-155.54;100.00;57697.75;5000424;28;19938;-62
2022/04/28 07:45:58;;;;;;;;;;;;;;;-155.54;100.00;57697.75;5026182;28;19973;-62
2022/04/28 07:48:24;;;;;;;;;;;;;;;-155.54;100.00;57697.75;5027625;28;20046;-61
2022/04/28 07:50:50;;;;;;;;;;;;;;;-155.54;100.00;57697.75;4985441;28;20281;-61
2022/04/28 07:53:15;;;;;;;;;;;;;;;-155.54;100.00;57697.75;4989424;28;19972;-62
2022/04/28 07:55:40;;;;;;;;;;;;;;;-155.54;100.00;57697.75;4993217;28;19939;-63
2022/04/28 07:58:06;;;;;;;;;;;;;;;-155.54;100.00;57697.75;4999862;28;20570;-63
2022/04/28 08:00:31;;;;;;;;;;;;;;;-155.54;100.00;57697.75;4998562;28;20671;-62
2022/04/28 08:02:56;;;;;;;;;;;;;;;-155.54;100.00;57697.75;5014621;28;19949;-63
2022/04/28 08:05:21;;;;;;;;;;;;;;;-155.54;100.00;57697.75;5005082;28;20036;-61
2022/04/28 08:07:47;;;;;;;;;;;;;;;-155.54;100.00;57697.75;5018288;28;20364;-63
2022/04/28 08:10:12;;;;;;;;;;;;;;;-155.54;100.00;57697.75;4998683;28;20052;-63
2022/04/28 08:12:38;;;;;;;;;;;;;;;-155.54;100.00;57697.75;4998200;28;20182;-63
2022/04/28 08:15:03;;;;;;;;;;;;;;;-155.54;100.00;57697.75;4988656;28;19958;-62
2022/04/28 08:17:28;;;;;;;;;;;;;;;-155.54;100.00;57697.75;4987496;28;20502;-62
2022/04/28 08:19:53;;;;;;;;;;;;;;;-155.54;100.00;57697.75;4996825;28;19981;-62
2022/04/28 08:22:19;;;;;;;;;;;;;;;-155.54;100.00;57697.75;5033756;28;20409;-62
2022/04/28 08:24:44;;;;;;;;;;;;;;;-155.54;100.00;57697.75;5000649;28;19959;-62
2022/04/28 08:27:09;;;;;;;;;;;;;;;-155.54;100.00;57697.75;4987506;28;19939;-63
2022/04/28 08:29:34;;;;;;;;;;;;;;;-155.54;100.00;57697.75;4988372;28;20578;-63
2022/04/28 08:32:00;;;;;;;;;;;;;;;-155.54;100.00;57697.75;4997190;28;19971;-62
2022/04/28 08:34:25;;;;;;;;;;;;;;;-155.54;100.00;57697.75;5002532;28;19961;-63
2022/04/28 08:36:50;;;;;;;;;;;;;;;-155.54;100.00;57697.75;4995142;28;20062;-65
2022/04/28 08:39:16;;;;;;;;;;;;;;;-155.54;100.00;57697.75;5003049;28;19944;-64
2022/04/28 08:41:42;;;;;;;;;;;;;;;-155.54;100.00;57697.75;4994287;28;20289;-62
2022/04/28 08:44:07;;;;;;;;;;;;;;;-155.54;100.00;57697.75;4986171;28;20364;-63
2022/04/28 08:46:51;;;;;;;;;;;;;;;-155.54;100.00;57697.75;5001121;28;19950;-62
2022/04/28 08:49:17;;;;;;;;;;;;;;;-155.54;100.00;57697.75;4991605;28;20354;-63
2022/04/28 08:51:43;;;;;;;;;;;;;;;-155.54;100.00;57697.75;4993996;28;20037;-63
2022/04/28 08:54:08;;;;;;;;;;;;;;;-155.54;100.00;57697.75;5017512;28;20300;-64
2022/04/28 08:56:34;;;;;;;;;;;;;;;-155.54;100.00;57697.75;5014826;28;20076;-63
2022/04/28 08:58:59;;;;;;;;;;;;;;;-155.54;100.00;57697.75;5021050;28;20022;-62
2022/04/28 09:01:25;;;;;;;;;;;;;;;-155.54;100.00;57697.75;5016272;28;19974;-63
2022/04/28 09:03:51;;;;;;;;;;;;;;;-155.54;100.00;57697.75;5006714;28;20356;-65
2022/04/28 09:06:20;;;;;;;;;;;;;;;-155.54;100.00;57697.75;5008437;28;19966;-64
2022/04/28 09:08:45;;;;;;;;;;;;;;;-155.54;100.00;57697.75;5004030;28;20631;-64
2022/04/28 09:11:17;;;;;;;;;;;;;;;-155.54;100.00;57697.75;4991285;28;20472;-64
2022/04/28 09:16:27;;;;;;;;;;;;;;;-155.54;100.00;57697.75;4993804;28;20012;-64
2022/04/28 09:18:53;;;;;;;;;;;;;;;-155.54;100.00;57697.75;5002639;28;20315;-64
2022/04/28 09:21:19;;;;;;;;;;;;;;;-155.54;100.00;57697.75;4997077;28;19980;-63
2022/04/28 09:23:44;;;;;;;;;;;;;;;-155.54;100.00;57697.75;5001048;28;19945;-64
2022/04/28 09:26:10;;;;;;;;;;;;;;;-155.54;100.00;57697.75;4986531;28;19972;-65
2022/04/28 09:28:36;;;;;;;;;;;;;;;-155.54;100.00;57697.75;5000029;28;20225;-65
2022/04/28 09:31:01;;;;;;;;;;;;;;;-155.54;100.00;57697.75;4997079;28;20542;-63
2022/04/28 09:33:26;;;;;;;;;;;;;;;-155.54;100.00;57697.75;4991835;28;19962;-65
2022/04/28 09:35:52;;;;;;;;;;;;;;;-155.54;100.00;57697.75;4995160;28;20402;-62
2022/04/28 09:38:18;;;;;;;;;;;;;;;-155.54;100.00;57697.75;5003023;28;19963;-63
2022/04/28 09:43:30;;;;;;;;;;;;;;;-155.54;100.00;57697.75;4991991;28;20303;-64
2022/04/28 09:45:56;;;;;;;;;;;;;;;-155.54;100.00;57697.75;4992732;28;20179;-65
2022/04/28 09:48:24;;;;;;;;;;;;;;;-155.54;100.00;57697.75;4993620;28;19924;-65
2022/04/28 09:50:49;;;;;;;;;;;;;;;-155.54;100.00;57697.75;5000259;28;20032;-63
2022/04/28 09:53:15;;;;;;;;;;;;;;;-155.54;100.00;57697.75;5000059;28;20040;-64
2022/04/28 09:55:41;;;;;;;;;;;;;;;-155.54;100.00;57697.75;4999471;28;19936;-62
2022/04/28 09:58:08;;;;;;;;;;;;;;;-155.54;100.00;57697.75;4999532;28;20441;-62
2022/04/28 10:00:34;;;;;;;;;;;;;;;-155.54;100.00;57697.75;4985011;28;19961;-64
2022/04/28 10:03:01;;;;;;;;;;;;;;;-155.54;100.00;57697.75;4988675;28;19999;-74
2022/04/28 10:05:26;;;;;;;;;;;;;;;-155.54;100.00;57697.75;4999591;28;19950;-73
2022/04/28 10:07:51;;;;;;;;;;;;;;;-155.54;100.00;57697.75;4998963;28;19934;-73
2022/04/28 10:10:17;;;;;;;;;;;;;;;-155.54;100.00;57697.75;5000458;28;19968;-73
2022/04/28 10:12:42;;;;;;;;;;;;;;;-155.54;100.00;57697.75;5004050;28;19952;-74
2022/04/28 10:15:07;;;;;;;;;;;;;;;-155.54;100.00;57697.75;5010172;28;19967;-74
2022/04/28 10:18:04;;;;;;;;;;;;;;;-155.54;100.00;57697.75;5040918;28;20419;-74
2022/04/28 10:20:47;;;;;;;;;;;;;;;-155.54;100.00;57697.75;5006298;28;19916;-74
2022/04/28 10:23:12;;;;;;;;;;;;;;;-155.54;100.00;57697.75;5041525;28;20009;-74
2022/04/28 10:34:12;;;;;;;;;;;;;;;-155.54;100.00;57697.75;5037785;28;20428;-74
2022/04/28 10:36:53;;;;;;;;;;;;;;;-155.54;100.00;57697.75;5015647;28;20384;-74
2022/04/28 10:39:31;;;;;;;;;;;;;;;-155.54;100.00;57697.75;5015422;28;19938;-74
2022/04/28 10:41:56;;;;;;;;;;;;;;;-155.54;100.00;57697.75;5040720;28;20513;-74
2022/04/28 10:44:22;;;;;;;;;;;;;;;-155.54;100.00;57697.75;5033128;28;20117;-73
2022/04/28 10:47:07;;;;;;;;;;;;;;;-155.54;100.00;57697.75;5040597;28;20429;-73
2022/04/28 10:49:39;;;;;;;;;;;;;;;-155.54;100.00;57697.75;5039276;28;20401;-73
2022/04/28 10:52:04;;;;;;;;;;;;;;;-155.54;100.00;57697.75;5030086;28;20294;-74
2022/04/28 10:54:41;;;;;;;;;;;;;;;-155.54;100.00;57697.75;5003282;28;19955;-73
2022/04/28 10:57:07;;;;;;;;;;;;;;;-155.54;100.00;57697.75;5019972;28;20016;-74
2022/04/28 10:59:34;;;;;;;;;;;;;;;-155.54;100.00;57697.75;5042189;28;19925;-74
2022/04/28 11:02:15;;;;;;;;;;;;;;;-155.54;100.00;57697.75;5035745;28;20294;-73
2022/04/28 11:04:40;;;;;;;;;;;;;;;-155.54;100.00;57697.75;5018539;28;19936;-74
2022/04/28 11:07:07;;;;;;;;;;;;;;;-155.54;100.00;57697.75;5002454;28;20379;-73
2022/04/28 11:09:41;;;;;;;;;;;;;;;-155.54;100.00;57697.75;5024087;28;20008;-74
2022/04/28 11:12:11;;;;;;;;;;;;;;;-155.54;100.00;57697.75;5035067;28;20357;-74
2022/04/28 11:14:48;;;;;;;;;;;;;;;-155.54;100.00;57697.75;4983004;28;20029;-73
2022/04/28 11:17:14;;;;;;;;;;;;;;;-155.54;100.00;57697.75;5023150;28;19954;-74
2022/04/28 11:19:40;;;;;;;;;;;;;;;-155.54;100.00;57697.75;5038457;28;19924;-73
2022/04/28 11:22:05;;;;;;;;;;;;;;;-155.54;100.00;57697.75;5041680;28;20399;-73
2022/04/28 11:24:30;;;;;;;;;;;;;;;-155.54;100.00;57697.75;5041406;28;19924;-73
2022/04/28 11:26:58;;;;;;;;;;;;;;;-155.54;100.00;57697.75;5041842;28;19975;-74
2022/04/28 11:29:24;;;;;;;;;;;;;;;-155.54;100.00;57697.75;5041754;28;19913;-73
2022/04/28 11:31:49;;;;;;;;;;;;;;;-155.54;100.00;57697.75;5041879;28;20447;-73
2022/04/28 11:34:14;;;;;;;;;;;;;;;-155.54;100.00;57697.75;5041313;28;19925;-73
2022/04/28 11:36:41;;;;;;;;;;;;;;;-155.54;100.00;57697.75;5041933;28;20026;-73
2022/04/28 11:39:08;;;;;;;;;;;;;;;-155.54;100.00;57697.75;5021224;28;20365;-74
2022/04/28 11:41:34;;;;;;;;;;;;;;;-155.54;100.00;57697.75;5041649;28;19925;-73
2022/04/28 11:44:09;;;;;;;;;;;;;;;-155.54;100.00;57697.75;5036918;28;20396;-73
2022/04/28 11:46:35;;;;;;;;;;;;;;;-155.54;100.00;57697.75;5032403;28;19947;-74
2022/04/28 11:49:00;;;;;;;;;;;;;;;-155.54;100.00;57697.75;5028412;28;20008;-74
2022/04/28 11:51:25;;;;;;;;;;;;;;;-155.54;100.00;57697.75;5034266;28;19913;-73
2022/04/28 11:53:52;;;;;;;;;;;;;;;-155.54;100.00;57697.75;5041763;28;20329;-74
2022/04/28 11:56:19;;;;;;;;;;;;;;;-155.54;100.00;57697.75;5041659;28;19966;-73
2022/04/28 11:58:50;;;;;;;;;;;;;;;-155.54;100.00;57697.75;5042306;28;20281;-73
2022/04/28 12:01:16;;;;;;;;;;;;;;;-155.54;100.00;57697.75;5041304;28;20348;-73
2022/04/28 12:03:48;;;;;;;;;;;;;;;-155.54;100.00;57697.75;5036308;28;19917;-73
2022/04/28 12:06:14;;;;;;;;;;;;;;;-155.54;100.00;57697.75;4986116;28;19918;-73
2022/04/28 12:08:39;;;;;;;;;;;;;;;-155.54;100.00;57697.75;4982468;28;19961;-73
2022/04/28 12:19:20;;;;;;;;;;;;;;;-155.54;100.00;57697.75;5008550;28;20265;-74
2022/04/28 12:21:46;;;;;;;;;;;;;;;-155.54;100.00;57697.75;5039507;28;20366;-74
2022/04/28 12:24:12;;;;;;;;;;;;;;;-155.54;100.00;57697.75;5045495;28;19915;-73
2022/04/28 12:26:39;;;;;;;;;;;;;;;-155.54;100.00;57697.75;5045727;28;20498;-73
2022/04/28 12:29:22;;;;;;;;;;;;;;;-155.54;100.00;57697.75;5043272;28;19923;-74
2022/04/28 12:31:54;;;;;;;;;;;;;;;-155.54;100.00;57697.75;5044873;28;19932;-73
2022/04/28 12:34:23;;;;;;;;;;;;;;;-155.54;100.00;57697.75;5044486;28;19955;-74
2022/04/28 12:36:57;;;;;;;;;;;;;;;-155.54;100.00;57697.75;5044347;28;19924;-73
2022/04/28 12:39:22;;;;;;;;;;;;;;;-155.54;100.00;57697.75;5033798;28;20460;-73
2022/04/28 12:41:50;;;;;;;;;;;;;;;-155.54;100.00;57697.75;5043017;28;19956;-73
2022/04/28 12:44:16;;;;;;;;;;;;;;;-155.54;100.00;57697.75;5033023;28;20270;-72
2022/04/28 12:46:44;;;;;;;;;;;;;;;-155.54;100.00;57697.75;4988705;28;20103;-73
2022/04/28 12:49:10;;;;;;;;;;;;;;;-155.54;100.00;57697.75;4988339;28;19914;-73
2022/04/28 12:51:42;;;;;;;;;;;;;;;-155.54;100.00;57697.75;4999954;28;19916;-73